Time;durP1;ratioP1;P1;durP2;ratioP2;P2;SDS_P1;SDS_P2;PMS_P1;PMS_P2;Temp;Humidity;BMP_temperature;BMP_pressure;BME280_temperature;BME280_humidity;BME280_pressure;Samples;Min_cycle;Max_cycle;Signal;HPM_P1;HPM_P2
2023/05/23 00:00:15;;;;;;;0.68;0.68;;;;;;;17.69;100.00;100624.34;4970659;28;20240;-86
2023/05/23 00:02:43;;;;;;;0.45;0.30;;;;;;;17.66;100.00;100627.03;4970155;28;20569;-85
2023/05/23 00:05:11;;;;;;;0.55;0.43;;;;;;;17.70;100.00;100620.75;4972596;28;20264;-83
2023/05/23 00:07:38;;;;;;;1.05;1.05;;;;;;;17.71;100.00;100612.69;4976656;28;20247;-84
2023/05/23 00:10:06;;;;;;;0.68;0.68;;;17.40;99.90;;;17.71;100.00;100610.03;4973194;28;20240;-83
2023/05/23 00:12:33;;;;;;;0.73;0.73;;;;;;;17.70;100.00;100604.69;4977957;28;20233;-84
2023/05/23 00:15:01;;;;;;;2.05;1.08;;;;;;;17.70;100.00;100607.38;4978677;28;20248;-83
2023/05/23 00:17:29;;;;;;;0.52;0.52;;;;;;;17.71;100.00;100604.66;4975641;28;20248;-84
2023/05/23 00:19:56;;;;;;;0.45;0.45;;;;;;;17.78;100.00;100603.66;4974968;28;20237;-84
2023/05/23 00:22:24;;;;;;;0.50;0.50;;;;;;;17.69;100.00;100600.25;4975898;28;20241;-83
2023/05/23 00:24:52;;;;;;;1.27;0.90;;;;;;;17.63;100.00;100595.88;4979182;28;20244;-84
2023/05/23 00:27:19;;;;;;;0.75;0.75;;;;;;;17.60;100.00;100604.81;4978340;28;20244;-84
2023/05/23 00:29:46;;;;;;;0.25;0.25;;;;;;;17.56;100.00;100603.09;4974135;28;20240;-84
2023/05/23 00:32:14;;;;;;;0.68;0.68;;;;;;;17.54;100.00;100598.69;4980279;28;20241;-84
2023/05/23 00:34:41;;;;;;;0.60;0.60;;;;;;;17.52;100.00;100601.41;4974150;28;20332;-85
2023/05/23 00:37:10;;;;;;;0.13;0.13;;;;;;;17.44;100.00;100599.75;4968514;28;20252;-84
2023/05/23 00:39:38;;;;;;;0.50;0.50;;;;;;;17.46;100.00;100611.31;4964591;28;20228;-84
2023/05/23 00:42:06;;;;;;;0.10;0.10;;;;;;;17.53;100.00;100612.97;4975208;28;20247;-83
2023/05/23 00:44:34;;;;;;;0.82;0.82;;;;;;;17.47;100.00;100615.75;4978784;28;20240;-84
2023/05/23 00:47:02;;;;;;;0.45;0.45;;;17.10;99.90;;;17.40;100.00;100617.63;4978887;28;20244;-84
2023/05/23 00:49:29;;;;;;;0.63;0.63;;;;;;;17.43;100.00;100620.25;4973948;28;20233;-84
2023/05/23 00:51:57;;;;;;;0.10;0.10;;;;;;;17.35;100.00;100613.28;4972403;28;20241;-84
2023/05/23 00:54:28;;;;;;;1.23;1.17;;;16.80;99.90;;;17.29;100.00;100619.59;4970129;28;20232;-84
2023/05/23 00:56:55;;;;;;;0.10;0.10;;;;;;;17.23;100.00;100609.00;4970861;28;20240;-84
2023/05/23 00:59:25;;;;;;;0.40;0.40;;;16.90;99.90;;;17.21;100.00;100616.16;4970565;28;20248;-83
2023/05/23 01:01:56;;;;;;;1.20;0.50;;;16.90;99.90;;;17.21;100.00;100618.84;4974354;28;20232;-85
2023/05/23 01:04:27;;;;;;;1.63;1.58;;;;;;;17.23;100.00;100628.59;4965588;28;20301;-85
2023/05/23 01:06:55;;;;;;;0.30;0.30;;;16.90;99.90;;;17.22;100.00;100625.94;4975333;28;20248;-85
2023/05/23 01:09:28;;;;;;;0.65;0.65;;;16.90;99.90;;;17.23;100.00;100635.72;4971080;28;20237;-85
2023/05/23 01:12:21;;;;;;;1.10;1.00;;;16.90;99.90;;;17.30;100.00;100640.06;4969296;28;20262;-85
2023/05/23 01:15:01;;;;;;;2.20;2.10;;;16.90;99.90;;;17.24;100.00;100635.72;4971627;28;20241;-86
2023/05/23 01:17:49;;;;;;;0.63;0.63;;;16.90;99.90;;;17.22;100.00;100644.66;4971283;28;20236;-84
2023/05/23 01:20:30;;;;;;;1.50;1.13;;;16.90;99.90;;;17.26;100.00;100652.59;4974969;28;20601;-84
2023/05/23 01:23:35;;;;;;;0.32;0.32;;;16.90;99.90;;;17.23;100.00;100644.63;4956782;28;20248;-84
2023/05/23 01:26:40;;;;;;;1.60;0.93;;;17.00;99.90;;;17.22;100.00;100653.56;4968379;28;20240;-84
2023/05/23 01:29:13;;;;;;;1.17;0.98;;;16.90;99.90;;;17.22;100.00;100660.69;4966577;28;20232;-84
2023/05/23 01:31:45;;;;;;;2.72;1.00;;;16.90;99.90;;;17.18;100.00;100654.50;4975028;28;20237;-85
2023/05/23 01:34:13;;;;;;;0.10;0.10;;;16.80;99.90;;;17.15;100.00;100656.34;4948290;28;20229;-84
2023/05/23 01:36:42;;;;;;;0.52;0.52;;;16.80;99.90;;;17.16;100.00;100650.09;4976814;28;20237;-84
2023/05/23 01:39:11;;;;;;;0.10;0.10;;;;;;;17.11;100.00;100657.28;4967402;28;20695;-84
2023/05/23 01:41:38;;;;;;;1.20;1.13;;;;;;;17.08;100.00;100654.66;4972013;28;20741;-84
2023/05/23 01:44:06;;;;;;;1.45;1.45;;;;;;;17.09;100.00;100669.78;4966048;28;20240;-85
2023/05/23 01:46:35;;;;;;;1.42;1.33;;;16.80;99.90;;;17.09;100.00;100669.78;4970214;28;20252;-85
2023/05/23 01:49:05;;;;;;;0.47;0.47;;;16.80;99.90;;;17.08;100.00;100674.25;4969206;28;20244;-83
2023/05/23 01:51:33;;;;;;;0.65;0.65;;;16.80;99.90;;;17.12;100.00;100667.94;4958954;28;20243;-84
2023/05/23 01:54:00;;;;;;;1.50;1.40;;;;;;;17.11;100.00;100665.31;4973685;28;20316;-83
2023/05/23 01:56:29;;;;;;;3.83;1.05;;;;;;;17.13;100.00;100666.16;4974750;28;20601;-84
2023/05/23 01:58:57;;;;;;;0.98;0.98;;;;;;;17.19;100.00;100668.75;4969481;28;20244;-83
2023/05/23 02:01:24;;;;;;;0.73;0.73;;;;;;;17.14;100.00;100667.94;4972943;28;20320;-83
2023/05/23 02:03:52;;;;;;;2.17;2.03;;;;;;;17.14;100.00;100663.47;4974271;28;20317;-83
2023/05/23 02:06:19;;;;;;;0.25;0.25;;;;;;;17.15;100.00;100659.00;4978012;28;20252;-83
2023/05/23 02:08:47;;;;;;;0.57;0.57;;;;;;;17.12;100.00;100664.41;4970754;28;20240;-83
2023/05/23 02:11:14;;;;;;;6.35;1.42;;;;;;;17.08;100.00;100662.66;4971093;28;20236;-83
2023/05/23 02:13:42;;;;;;;0.20;0.20;;;;;;;17.03;100.00;100664.53;4980046;28;20748;-84
2023/05/23 02:16:10;;;;;;;0.95;0.95;;;;;;;17.12;100.00;100675.09;4958994;28;20252;-83
2023/05/23 02:18:38;;;;;;;0.32;0.32;;;;;;;17.06;100.00;100672.50;4976974;28;20295;-83
2023/05/23 02:21:05;;;;;;;0.22;0.22;;;;;;;17.04;100.00;100671.63;4966389;28;20237;-83
2023/05/23 02:23:33;;;;;;;0.50;0.50;;;;;;;17.03;100.00;100668.09;4969765;28;20237;-84
2023/05/23 02:26:00;;;;;;;0.35;0.35;;;;;;;16.98;100.00;100663.72;4974219;28;20236;-83
2023/05/23 02:28:28;;;;;;;0.80;0.80;;;;;;;16.95;100.00;100670.84;4975300;28;20233;-80
2023/05/23 02:30:56;;;;;;;0.98;0.98;;;;;;;17.01;100.00;100679.69;4974437;28;20237;-81
2023/05/23 02:33:23;;;;;;;4.20;1.20;;;;;;;16.96;100.00;100671.75;4986640;28;20236;-81
2023/05/23 02:35:51;;;;;;;0.22;0.22;;;;;;;16.92;100.00;100670.00;4973338;28;20264;-81
2023/05/23 02:38:19;;;;;;;1.95;1.85;;;;;;;16.91;100.00;100663.78;4983421;28;20240;-81
2023/05/23 02:40:49;;;;;;;0.20;0.20;;;;;;;16.88;100.00;100671.81;4981503;28;20608;-83
2023/05/23 02:43:16;;;;;;;0.75;0.75;;;;;;;16.90;100.00;100671.78;4967582;28;20670;-84
2023/05/23 02:45:44;;;;;;;0.95;0.95;;;;;;;16.91;100.00;100674.47;4976489;28;20241;-83
2023/05/23 02:48:12;;;;;;;0.65;0.65;;;;;;;16.87;100.00;100666.50;4974677;28;20236;-83
2023/05/23 02:50:39;;;;;;;0.35;0.35;;;;;;;16.86;100.00;100668.28;4991252;28;20295;-82
2023/05/23 02:53:07;;;;;;;1.33;1.33;;;;;;;16.94;100.00;100670.88;4975672;28;20247;-83
2023/05/23 02:55:35;;;;;;;1.90;0.90;;;;;;;16.96;100.00;100669.06;4976232;28;20233;-82
2023/05/23 02:58:04;;;;;;;1.63;1.52;;;;;;;16.84;100.00;100667.41;4972713;28;20229;-83
2023/05/23 03:00:32;;;;;;;0.95;0.93;;;;;;;16.85;100.00;100666.50;4972814;28;20237;-82
2023/05/23 03:03:00;;;;;;;1.92;1.63;;;;;;;16.89;100.00;100662.88;4970499;28;20257;-83
2023/05/23 03:05:30;;;;;;;0.40;0.40;;;;;;;16.95;100.00;100665.50;4972204;28;20241;-81
2023/05/23 03:07:59;;;;;;;0.95;0.70;;;;;;;16.90;100.00;100669.13;4969169;28;20288;-82
2023/05/23 03:10:26;;;;;;;0.25;0.25;;;;;;;16.93;100.00;100651.28;4973829;28;20648;-82
2023/05/23 03:12:54;;;;;;;1.23;0.85;;;;;;;16.90;100.00;100645.06;4967816;28;20229;-82
2023/05/23 03:15:21;;;;;;;2.00;1.45;;;;;;;16.90;100.00;100645.06;4972865;28;20241;-83
2023/05/23 03:17:49;;;;;;;0.40;0.40;;;;;;;16.77;100.00;100644.34;4974782;28;20255;-83
2023/05/23 03:20:16;;;;;;;0.10;0.10;;;;;;;16.82;100.00;100636.28;4969951;28;20241;-83
2023/05/23 03:22:44;;;;;;;4.20;1.30;;;;;;;16.74;100.00;100647.06;4970468;28;20637;-84
2023/05/23 03:25:13;;;;;;;1.08;1.08;;;;;;;16.75;100.00;100648.84;4964316;28;20240;-84
2023/05/23 03:27:41;;;;;;;0.20;0.20;;;;;;;16.65;100.00;100644.50;4968156;28;20232;-84
2023/05/23 03:30:09;;;;;;;1.60;0.85;;;16.40;99.90;;;16.70;100.00;100663.16;4967245;28;20241;-82
2023/05/23 03:32:37;;;;;;;0.20;0.20;;;;;;;16.64;100.00;100672.97;4963836;28;20236;-82
2023/05/23 03:35:05;;;;;;;0.20;0.20;;;;;;;16.62;100.00;100673.88;4973797;28;20237;-82
2023/05/23 03:37:32;;;;;;;1.52;1.08;;;;;;;16.60;100.00;100671.25;4975476;28;20220;-83
2023/05/23 03:40:00;;;;;;;0.57;0.57;;;;;;;16.62;100.00;100668.53;4974296;28;20236;-82
2023/05/23 03:42:30;;;;;;;1.65;0.43;;;16.30;99.90;;;16.58;100.00;100667.69;4974613;28;20283;-82
2023/05/23 03:44:57;;;;;;;0.52;0.52;;;;;;;16.58;100.00;100669.50;4975299;28;20243;-82
2023/05/23 03:47:25;;;;;;;0.55;0.55;;;;;;;16.56;100.00;100660.59;4974615;28;20251;-83
2023/05/23 03:49:52;;;;;;;0.30;0.30;;;;;;;16.54;100.00;100657.06;4965844;28;20285;-83
2023/05/23 03:52:20;;;;;;;0.10;0.10;;;;;;;16.54;100.00;100651.72;4968572;28;20248;-82
2023/05/23 03:54:47;;;;;;;0.25;0.25;;;;;;;16.51;100.00;100643.75;4970180;28;20256;-83
2023/05/23 03:57:15;;;;;;;0.10;0.10;;;;;;;16.50;100.00;100639.31;4951772;28;20252;-82
2023/05/23 03:59:43;;;;;;;0.88;0.85;;;;;;;16.47;100.00;100629.56;4973972;28;20229;-82
2023/05/23 04:02:10;;;;;;;1.35;0.65;;;;;;;16.42;100.00;100620.72;4970571;28;20241;-83
2023/05/23 04:04:38;;;;;;;0.55;0.55;;;;;;;16.40;100.00;100608.31;4973035;28;20225;-83
2023/05/23 04:07:08;;;;;;;0.28;0.28;;;;;;;16.42;100.00;100596.72;4970428;28;20283;-83
2023/05/23 04:09:35;;;;;;;1.02;0.70;;;;;;;16.49;100.00;100577.03;4966249;28;20233;-84
2023/05/23 04:12:03;;;;;;;0.10;0.10;;;;;;;16.47;100.00;100570.84;4965498;28;20243;-83
2023/05/23 04:14:32;;;;;;;1.10;1.00;;;;;;;16.46;100.00;100553.06;4971353;28;20312;-82
2023/05/23 04:17:00;;;;;;;0.20;0.20;;;;;;;16.45;100.00;100545.06;4971351;28;20233;-83
2023/05/23 04:19:27;;;;;;;0.47;0.47;;;;;;;16.43;100.00;100546.88;4972273;28;20232;-82
2023/05/23 04:21:55;;;;;;;0.20;0.20;;;;;;;16.43;100.00;100546.88;4972517;28;20236;-83
2023/05/23 04:24:22;;;;;;;1.27;0.73;;;;;;;16.47;100.00;100537.91;4971167;28;20244;-82
2023/05/23 04:26:50;;;;;;;1.95;0.95;;;;;;;16.46;100.00;100534.38;4974997;28;20232;-83
2023/05/23 04:29:17;;;;;;;0.38;0.38;;;;;;;16.43;100.00;100537.06;4972766;28;20242;-82
2023/05/23 04:31:45;;;;;;;0.95;0.95;;;;;;;16.46;100.00;100533.50;4974735;28;20237;-82
2023/05/23 04:34:13;;;;;;;0.73;0.73;;;;;;;16.38;100.00;100528.25;4974683;28;20293;-83
2023/05/23 04:36:43;;;;;;;0.52;0.52;;;;;;;16.38;100.00;100533.59;4970153;28;20744;-85
2023/05/23 04:39:11;;;;;;;0.20;0.20;;;;;;;16.31;100.00;100523.91;4977285;28;20265;-82
2023/05/23 04:41:38;;;;;;;0.10;0.10;;;16.00;99.90;;;16.32;100.00;100533.66;4973531;28;20249;-82
2023/05/23 04:44:08;;;;;;;0.20;0.20;;;;;;;16.31;100.00;100538.13;4972776;28;20237;-82
2023/05/23 04:46:40;;;;;;;0.22;0.22;;;;;;;16.30;100.00;100544.38;4977705;28;20241;-83
2023/05/23 04:51:55;;;;;;;1.50;1.38;;;;;;;16.29;100.00;100579.97;4985191;23;20225;-89
2023/05/23 04:54:22;;;;;;;0.60;0.60;;;;;;;16.27;100.00;100586.22;4974237;28;20233;-88
2023/05/23 04:56:50;;;;;;;0.30;0.30;;;;;;;16.33;100.00;100595.03;4975944;28;20282;-88
2023/05/23 04:59:17;;;;;;;0.40;0.40;;;;;;;16.34;100.00;100598.59;4966527;28;20321;-89
2023/05/23 05:01:45;;;;;;;0.50;0.50;;;;;;;16.37;100.00;100603.00;4972225;28;20329;-88
2023/05/23 05:04:13;;;;;;;0.10;0.10;;;;;;;16.35;100.00;100618.16;4969520;28;20233;-86
2023/05/23 05:06:41;;;;;;;0.40;0.40;;;;;;;16.35;100.00;100619.03;4961051;28;20622;-86
2023/05/23 05:09:08;;;;;;;0.63;0.63;;;;;;;16.42;100.00;100623.41;4971311;28;20744;-87
2023/05/23 05:11:36;;;;;;;0.20;0.20;;;;;;;16.43;100.00;100622.50;4963919;28;20242;-90
2023/05/23 05:14:04;;;;;;;0.40;0.38;;;;;;;16.44;100.00;100626.06;4964691;28;20275;-90
2023/05/23 05:16:31;;;;;;;1.25;1.17;;;;;;;16.47;100.00;100624.22;4961673;28;20238;-88
2023/05/23 05:18:59;;;;;;;0.35;0.30;;;;;;;16.55;100.00;100617.00;4960863;28;20296;-83
2023/05/23 05:21:26;;;;;;;0.60;0.60;;;;;;;16.59;100.00;100618.72;4965691;28;20236;-83
2023/05/23 05:23:54;;;;;;;1.05;1.00;;;;;;;16.69;100.00;100619.53;4943728;28;20242;-84
2023/05/23 05:26:22;;;;;;;0.17;0.17;;;;;;;16.76;100.00;100617.66;4970735;28;20236;-83
2023/05/23 05:28:50;;;;;;;0.93;0.93;;;;;;;16.73;100.00;100593.66;4965555;28;20260;-82
2023/05/23 05:31:18;;;;;;;0.10;0.10;;;;;;;16.76;100.00;100590.97;4973711;28;20251;-82
2023/05/23 05:33:46;;;;;;;1.58;0.43;;;;;;;16.70;100.00;100569.69;4973234;28;20245;-83
2023/05/23 05:36:13;;;;;;;0.10;0.10;;;;;;;16.78;100.00;100565.13;4972616;28;20713;-81
2023/05/23 05:38:41;;;;;;;0.17;0.17;;;;;;;16.74;100.00;100550.03;4972261;28;20592;-83
2023/05/23 05:41:08;;;;;;;0.20;0.20;;;;;;;16.61;100.00;100531.50;4969937;28;20244;-84
2023/05/23 05:43:36;;;;;;;0.35;0.35;;;;;;;16.66;100.00;100531.44;4973101;28;20248;-81
2023/05/23 05:46:04;;;;;;;0.30;0.30;;;;;;;16.77;100.00;100544.66;4972812;28;20241;-82
2023/05/23 05:48:32;;;;;;;0.10;0.10;;;16.40;99.90;;;16.79;100.00;100541.06;4971787;28;20326;-82
2023/05/23 05:51:00;;;;;;;0.10;0.10;;;;;;;16.80;100.00;100536.59;5059097;23;20289;-85
2023/05/23 05:53:27;;;;;;;0.20;0.20;;;;;;;17.00;100.00;100549.69;4966728;28;20695;-84
2023/05/23 05:55:55;;;;;;;0.30;0.30;;;;;;;17.03;100.00;100537.16;4964128;28;20237;-83
2023/05/23 05:58:22;;;;;;;0.10;0.10;;;;;;;17.03;100.00;100525.59;4954593;28;20241;-84
2023/05/23 06:00:49;;;;;;;0.10;0.10;;;;;;;16.97;100.00;100504.31;4952726;28;20252;-85
2023/05/23 06:03:17;;;;;;;0.10;0.10;;;;;;;17.02;100.00;100499.78;4952901;28;20245;-84
2023/05/23 06:05:45;;;;;;;0.38;0.38;;;;;;;16.96;100.00;100492.75;4949886;28;20239;-83
2023/05/23 06:08:12;;;;;;;3.03;0.55;;;;;;;16.84;100.00;100468.88;4969318;28;20245;-82
2023/05/23 06:10:40;;;;;;;1.95;0.80;;;;;;;16.92;100.00;100477.69;4955592;28;20614;-82
2023/05/23 06:13:08;;;;;;;0.47;0.47;;;;;;;16.89;100.00;100467.00;4972796;28;20241;-81
2023/05/23 06:15:35;;;;;;;0.17;0.17;;;;;;;16.95;100.00;100481.19;4961835;28;20229;-83
2023/05/23 06:18:03;;;;;;;0.10;0.10;;;;;;;16.80;100.00;100461.81;4955770;28;20248;-80
2023/05/23 06:20:30;;;;;;;0.00;0.00;;;;;;;16.92;100.00;100483.91;4955472;28;20237;-80
2023/05/23 06:22:59;;;;;;;0.20;0.20;;;;;;;16.91;100.00;100481.25;4952867;28;20644;-82
2023/05/23 06:25:27;;;;;;;0.70;0.70;;;;;;;16.85;100.00;100478.66;4952240;28;20240;-79
2023/05/23 06:27:54;;;;;;;0.47;0.47;;;;;;;16.79;100.00;100481.41;4950740;28;20238;-81
2023/05/23 06:30:23;;;;;;;0.08;0.08;;;;;;;16.75;100.00;100480.59;4947433;28;20687;-80
2023/05/23 06:32:50;;;;;;;1.15;0.35;;;;;;;16.87;100.00;100498.19;4948222;28;20243;-83
2023/05/23 06:35:18;;;;;;;0.32;0.32;;;;;;;16.83;100.00;100492.03;4954757;28;20273;-81
2023/05/23 06:37:45;;;;;;;0.10;0.10;;;;;;;16.85;100.00;100514.25;4954660;28;20238;-82
2023/05/23 06:40:13;;;;;;;0.85;0.85;;;;;;;16.88;100.00;100516.88;4953783;28;20232;-80
2023/05/23 06:42:41;;;;;;;0.10;0.10;;;;;;;16.87;100.00;100512.44;4955250;28;20362;-80
2023/05/23 06:45:09;;;;;;;0.20;0.20;;;;;;;16.88;100.00;100507.97;4963000;28;20236;-81
2023/05/23 06:47:37;;;;;;;0.10;0.10;;;;;;;16.83;100.00;100507.16;4963936;28;20579;-82
2023/05/23 06:50:05;;;;;;;0.73;0.73;;;;;;;16.80;100.00;100489.41;4979712;23;20318;-83
2023/05/23 06:52:32;;;;;;;1.10;1.10;;;;;;;16.88;100.00;100505.31;4958962;28;20245;-83
2023/05/23 06:54:59;;;;;;;0.10;0.10;;;;;;;16.88;100.00;100516.88;4967983;28;20264;-84
2023/05/23 06:57:27;;;;;;;0.32;0.32;;;;;;;16.88;100.00;100527.56;4951202;28;20256;-82
2023/05/23 06:59:54;;;;;;;0.68;0.68;;;;;;;16.80;100.00;100528.59;4963715;28;20233;-82
2023/05/23 07:02:22;;;;;;;0.28;0.28;;;;;;;16.86;100.00;100536.50;4966160;28;20238;-84
2023/05/23 07:04:50;;;;;;;0.17;0.17;;;;;;;16.86;100.00;100534.72;4965689;28;20280;-83
2023/05/23 07:07:17;;;;;;;0.03;0.03;;;;;;;16.87;100.00;100539.16;4967862;28;20225;-81
2023/05/23 07:09:45;;;;;;;0.00;0.00;;;;;;;16.73;100.00;100506.44;4970760;28;20257;-84
2023/05/23 07:12:13;;;;;;;0.80;0.80;;;;;;;16.76;100.00;100508.16;4970004;28;20255;-82
2023/05/23 07:14:40;;;;;;;0.20;0.20;;;;;;;16.73;100.00;100509.09;4959465;28;20723;-81
2023/05/23 07:17:08;;;;;;;0.10;0.10;;;;;;;16.88;100.00;100508.88;4959650;28;20233;-81
2023/05/23 07:19:36;;;;;;;1.02;0.95;;;;;;;16.88;100.00;100490.16;4969226;28;20328;-81
2023/05/23 07:22:04;;;;;;;0.75;0.75;;;;;;;16.98;100.00;100498.94;4961213;28;20247;-80
2023/05/23 07:24:31;;;;;;;0.43;0.43;;;;;;;17.10;100.00;100488.06;4966405;28;20253;-81
2023/05/23 07:26:59;;;;;;;0.20;0.20;;;;;;;17.20;100.00;100483.44;4976569;28;20259;-80
2023/05/23 07:29:27;;;;;;;0.13;0.13;;;;;;;17.17;100.00;100438.06;4975910;28;20271;-81
2023/05/23 07:31:55;;;;;;;0.10;0.10;;;;;;;17.30;100.00;100439.59;4968130;28;20244;-81
2023/05/23 07:34:23;;;;;;;0.00;0.00;;;;;;;17.41;100.00;100442.97;4973416;28;20243;-80
2023/05/23 07:36:50;;;;;;;0.10;0.10;;;;;;;17.30;100.00;100433.38;4973652;28;20244;-84
2023/05/23 07:39:21;;;;;;;0.20;0.20;;;;;;;17.35;100.00;100423.47;4971606;28;20241;-81
2023/05/23 07:41:49;;;;;;;0.25;0.25;;;;;;;17.36;100.00;100412.75;4969806;28;20241;-83
2023/05/23 07:44:18;;;;;;;0.20;0.20;;;17.00;99.90;;;17.56;100.00;100415.03;4964682;28;20233;-80
2023/05/23 07:46:48;;;;;;;0.10;0.10;;;;;;;17.51;100.00;100398.22;4973087;28;20251;-81
2023/05/23 07:49:16;;;;;;;0.15;0.15;;;;;;;17.55;100.00;100398.13;4965430;28;20236;-82
2023/05/23 07:51:43;;;;;;;0.20;0.20;;;;;;;17.59;100.00;100407.84;4971090;28;20245;-82
2023/05/23 07:54:11;;;;;;;0.35;0.35;;;;;;;17.65;100.00;100403.28;4968391;28;20233;-80
2023/05/23 07:56:42;;;;;;;0.00;0.00;;;17.30;99.90;;;17.71;100.00;100414.78;4971627;28;20745;-80
2023/05/23 07:59:09;;;;;;;0.10;0.10;;;;;;;17.47;100.00;100380.47;4967801;28;20237;-79
2023/05/23 08:01:37;;;;;;;0.10;0.10;;;;;;;17.57;100.00;100390.06;4970743;28;20241;-79
2023/05/23 08:04:05;;;;;;;0.10;0.10;;;;;;;17.41;100.00;100354.75;4970724;28;20269;-82
2023/05/23 08:06:32;;;;;;;0.10;0.10;;;;;;;17.61;100.00;100383.75;4984809;28;20255;-80
2023/05/23 08:09:00;;;;;;;0.43;0.43;;;17.20;99.90;;;17.48;100.00;100379.56;4972959;28;20345;-79
2023/05/23 08:11:29;;;;;;;0.10;0.10;;;;;;;17.43;100.00;100368.97;4975958;28;20228;-79
2023/05/23 08:13:58;;;;;;;0.00;0.00;;;;;;;17.51;100.00;100356.31;4976652;28;20237;-79
2023/05/23 08:16:27;;;;;;;0.10;0.10;;;;;;;17.58;100.00;100371.31;4978115;28;20319;-79
2023/05/23 08:18:55;;;;;;;0.28;0.28;;;;;;;17.49;100.00;100347.44;4973138;28;20249;-79
2023/05/23 08:21:23;;;;;;;0.00;0.00;;;17.30;99.90;;;17.68;100.00;100360.47;4968531;28;20328;-81
2023/05/23 08:23:51;;;;;;;0.60;0.30;;;;;;;17.52;100.00;100334.00;4970680;28;20229;-81
2023/05/23 08:26:18;;;;;;;0.20;0.20;;;17.40;99.90;;;17.59;100.00;100348.13;4966671;28;20238;-80
2023/05/23 08:28:45;;;;;;;0.10;0.10;;;17.20;99.90;;;17.49;100.00;100323.38;4967297;28;20252;-81
2023/05/23 08:31:13;;;;;;;0.10;0.10;;;;;;;17.62;100.00;100341.84;4963656;28;20229;-79
2023/05/23 08:33:41;;;;;;;0.00;0.00;;;;;;;17.70;100.00;100334.56;4964736;28;20666;-78
2023/05/23 08:36:08;;;;;;;0.00;0.00;;;;;;;17.49;100.00;100312.69;4970491;28;20244;-82
2023/05/23 08:38:36;;;;;;;0.10;0.10;;;;;;;17.65;100.00;100333.75;4966868;28;20712;-82
2023/05/23 08:41:16;;;;;;;0.00;0.00;;;17.30;99.90;;;17.69;100.00;100349.72;4968042;28;20240;-80
2023/05/23 08:43:43;;;;;;;0.10;0.10;;;;;;;17.74;100.00;100349.63;4971823;28;20244;-81
2023/05/23 08:46:12;;;;;;;0.22;0.22;;;17.30;99.90;;;17.56;100.00;100319.66;4968318;28;20249;-81
2023/05/23 08:48:40;;;;;;;0.43;0.43;;;;;;;17.66;100.00;100319.47;4962892;28;20245;-81
2023/05/23 08:51:12;;;;;;;0.20;0.20;;;17.50;99.90;;;17.88;100.00;100359.13;5043590;23;20226;-81
2023/05/23 08:53:47;;;;;;;0.32;0.32;;;17.60;99.90;;;17.98;100.00;100349.09;4937675;28;20386;-82
2023/05/23 08:56:19;;;;;;;0.00;0.00;;;18.00;99.90;;;18.48;100.00;100349.72;4953265;28;20238;-85
2023/05/23 08:58:46;;;;;;;0.00;0.00;;;;;;;18.76;100.00;100348.13;4931114;29;20243;-85
2023/05/23 09:01:17;;;;;;;0.00;0.00;;;;;;;18.93;100.00;100339.66;4929902;29;20243;-85
2023/05/23 09:03:44;;;;;;;0.10;0.10;;;;;;;18.79;100.00;100267.69;4914784;29;20333;-83
2023/05/23 09:06:12;;;;;;;0.10;0.10;;;;;;;19.30;100.00;100306.47;4917596;29;20251;-83
2023/05/23 09:08:39;;;;;;;0.10;0.10;;;;;;;19.62;100.00;100301.09;4918796;29;20242;-84
2023/05/23 09:11:07;;;;;;;0.32;0.32;;;;;;;19.62;100.00;100247.44;4920805;29;20322;-83
2023/05/23 09:13:35;;;;;;;0.10;0.10;;;;;;;19.33;100.00;100185.72;4934255;29;20250;-83
2023/05/23 09:16:09;;;;;;;0.00;0.00;;;19.30;99.90;;;19.62;100.00;100183.06;4919773;29;20247;-84
2023/05/23 09:18:38;;;;;;;0.00;0.00;;;19.40;99.90;;;20.06;100.00;100229.91;4900884;29;20243;-81
2023/05/23 09:21:08;;;;;;;0.30;0.30;;;19.30;99.90;;;19.57;100.00;100130.50;4919124;29;20245;-81
2023/05/23 09:23:38;;;;;;;0.10;0.10;;;19.30;99.90;;;19.65;100.00;100158.81;4916928;29;20233;-80
2023/05/23 09:26:09;;;;;;;0.30;0.30;;;19.70;99.90;;;20.16;100.00;100184.84;4918160;29;20258;-82
2023/05/23 09:28:39;;;;;;;0.65;0.65;;;19.60;99.90;;;19.91;100.00;100138.31;4917673;29;20243;-82
2023/05/23 09:31:07;;;;;;;0.00;0.00;;;19.50;99.90;;;20.06;100.00;100175.34;4917158;29;20234;-81
2023/05/23 09:33:49;;;;;;;0.08;0.08;;;19.80;99.90;;;20.30;100.00;100157.53;4914974;29;20231;-82
2023/05/23 09:36:17;;;;;;;0.08;0.08;;;;;;;20.35;100.00;100163.59;4920582;29;20330;-81
2023/05/23 09:38:47;;;;;;;0.10;0.10;;;19.60;99.90;;;19.86;100.00;100098.19;4917423;29;20255;-82
2023/05/23 09:41:15;;;;;;;0.00;0.00;;;;;;;19.72;100.00;100054.88;4916566;29;20327;-80
2023/05/23 09:43:53;;;;;;;0.00;0.00;;;19.60;99.90;;;19.76;100.00;100059.19;4917109;29;20711;-81
2023/05/23 09:46:21;;;;;;;0.10;0.10;;;;;;;19.99;100.00;100118.31;4908512;29;20249;-81
2023/05/23 09:48:51;;;;;;;0.00;0.00;;;19.50;99.90;;;19.97;100.00;100087.97;4917713;29;20246;-80
2023/05/23 09:51:20;;;;;;;0.30;0.30;;;19.30;99.90;;;19.73;100.00;100054.81;4919297;29;20235;-80
2023/05/23 09:53:49;;;;;;;0.00;0.00;;;;;;;20.15;100.00;100083.75;4917509;29;20274;-82
2023/05/23 09:56:17;;;;;;;0.00;0.00;;;;;;;20.32;100.00;100073.28;4914996;29;20235;-82
2023/05/23 09:58:47;;;;;;;0.00;0.00;;;20.00;99.90;;;20.47;100.00;100079.06;4917832;29;20239;-82
2023/05/23 10:01:16;;;;;;;0.03;0.03;;;20.30;99.90;;;20.47;100.00;100041.47;4916175;29;20242;-80
2023/05/23 10:03:56;;;;;;;0.00;0.00;;;20.20;99.90;;;20.42;100.00;100050.56;4896115;29;20250;-80
2023/05/23 10:06:28;;;;;;;0.10;0.10;;;20.10;99.90;;;20.23;100.00;100048.59;4912970;29;20311;-82
2023/05/23 10:09:04;;;;;;;0.00;0.00;;;20.00;99.90;;;20.03;100.00;100009.91;4930329;29;20234;-80
2023/05/23 10:11:34;;;;;;;0.30;0.10;;;;;;;19.91;100.00;99978.16;4914817;29;20242;-82
2023/05/23 10:14:08;;;;;;;0.00;0.00;;;19.70;99.90;;;19.85;100.00;99967.66;4907552;29;20243;-82
2023/05/23 10:17:02;;;;;;;0.10;0.10;;;19.60;99.90;;;19.74;100.00;99921.56;4917062;29;20246;-83
2023/05/23 10:19:43;;;;;;;0.10;0.10;;;19.50;99.90;;;19.71;100.00;99916.28;4914261;29;20244;-84
2023/05/23 10:22:13;;;;;;;0.00;0.00;;;19.50;99.90;;;19.80;100.00;99950.84;4913108;29;20231;-83
2023/05/23 10:24:42;;;;;;;0.00;0.00;;;;;;;19.70;100.00;99941.38;4915177;29;20270;-84
2023/05/23 10:27:10;;;;;;;0.50;0.50;;;;;;;19.77;100.00;99975.09;4901339;29;20231;-84
2023/05/23 10:29:37;;;;;;;0.00;0.00;;;;;;;19.38;100.00;99907.59;4912687;29;20242;-82
2023/05/23 10:32:06;;;;;;;0.10;0.10;;;19.10;99.90;;;19.39;100.00;99930.78;4930315;29;20230;-84
2023/05/23 10:35:10;;;;;;;0.00;0.00;;;19.00;99.90;;;19.28;100.00;99896.31;4912530;29;20239;-82
2023/05/23 10:38:12;;;;;;;0.00;0.00;;;18.90;99.90;;;19.41;100.00;99896.75;4909242;29;20250;-81
2023/05/23 10:41:11;;;;;;;0.10;0.10;;;19.10;99.90;;;19.42;100.00;99912.78;4911393;29;20238;-81
2023/05/23 10:44:25;;;;;;;0.30;0.30;;;19.30;99.90;;;19.86;100.00;99947.94;4910298;29;20728;-82
2023/05/23 10:47:00;;;;;;;0.10;0.10;;;19.60;99.90;;;20.07;100.00;99975.78;4927690;29;20249;-82
2023/05/23 10:52:15;;;;;;;0.00;0.00;;;19.70;99.90;;;20.15;100.00;99960.28;4945245;28;20235;-85
2023/05/23 10:54:50;;;;;;;0.10;0.10;;;19.60;99.90;;;19.84;100.00;99887.22;4933375;28;20297;-80
2023/05/23 10:57:26;;;;;;;0.15;0.15;;;19.50;99.90;;;19.88;100.00;99894.22;4950820;28;20251;-80
2023/05/23 10:59:54;;;;;;;0.00;0.00;;;;;;;20.03;100.00;99896.31;4945250;28;20240;-81
2023/05/23 11:02:27;;;;;;;0.10;0.10;;;19.70;99.90;;;20.10;100.00;99900.50;4952145;28;20248;-80
2023/05/23 11:05:25;;;;;;;0.57;0.57;;;19.80;99.90;;;20.32;100.00;99924.72;4953191;28;20233;-80
2023/05/23 11:08:15;;;;;;;0.00;0.00;;;19.80;99.90;;;20.10;100.00;99869.16;4948566;28;20241;-78
2023/05/23 11:11:08;;;;;;;0.00;0.00;;;19.20;99.90;;;19.82;100.00;99817.50;4949193;28;20244;-80
2023/05/23 11:14:01;;;;;;;0.10;0.10;;;19.40;99.90;;;19.64;100.00;99815.53;4947806;28;20237;-77